createdAt,value
2022-09-12T00:00:26.834Z,11.32
2022-09-12T00:01:08.683Z,13.30
2022-09-12T00:01:41.736Z,15.75
2022-09-12T00:02:16.193Z,15.00
2022-09-12T00:02:54.974Z,10.63
2022-09-12T00:03:28.793Z,16.20
2022-09-12T00:04:03.755Z,13.77
2022-09-12T00:04:38.613Z,12.95
2022-09-12T00:05:13.339Z,16.73
2022-09-12T00:05:48.770Z,11.82
2022-09-12T00:06:24.662Z,13.35
2022-09-12T00:07:00.874Z,15.35
2022-09-12T00:07:34.591Z,12.00
2022-09-12T00:08:07.905Z,12.82
2022-09-12T00:08:42.621Z,14.82
2022-09-12T00:09:16.069Z,11.50
2022-09-12T00:09:51.169Z,13.73
2022-09-12T00:10:26.693Z,11.35
2022-09-12T00:11:05.885Z,14.45
2022-09-12T00:11:40.376Z,14.93
2022-09-12T00:12:14.769Z,11.63
2022-09-12T00:12:48.933Z,13.40
2022-09-12T00:13:22.948Z,11.32
2022-09-12T00:13:58.762Z,14.43
2022-09-12T00:14:32.740Z,13.25
2022-09-12T00:15:07.201Z,14.02
2022-09-12T00:15:42.240Z,14.07
2022-09-12T00:16:17.998Z,15.00
2022-09-12T00:16:52.180Z,18.20
2022-09-12T00:17:28.581Z,14.27
2022-09-12T00:18:01.891Z,10.75
2022-09-12T00:18:35.588Z,15.15
2022-09-12T00:19:10.990Z,14.70
2022-09-12T00:19:45.126Z,14.70
2022-09-12T00:20:20.982Z,14.55
2022-09-12T00:20:55.121Z,12.98
2022-09-12T00:21:29.749Z,13.73
2022-09-12T00:22:05.141Z,14.55
2022-09-12T00:22:40.444Z,12.60
2022-09-12T00:23:13.819Z,13.52
2022-09-12T00:23:47.712Z,12.95
2022-09-12T00:24:22.589Z,12.13
2022-09-12T00:24:56.988Z,14.95
2022-09-12T00:25:32.018Z,14.07
2022-09-12T00:26:07.406Z,12.25
2022-09-12T00:26:41.982Z,13.52
2022-09-12T00:27:15.923Z,14.93
2022-09-12T00:27:50.460Z,14.75
2022-09-12T00:28:24.710Z,20.35
2022-09-12T00:28:59.215Z,11.85
2022-09-12T00:29:35.567Z,13.73
2022-09-12T00:30:11.573Z,13.30
2022-09-12T00:30:45.276Z,13.18
2022-09-12T00:31:21.629Z,14.25
2022-09-12T00:31:55.257Z,14.93
2022-09-12T00:32:29.243Z,13.30
2022-09-12T00:33:03.464Z,14.65
2022-09-12T00:33:37.973Z,15.10
2022-09-12T00:34:11.949Z,14.30
2022-09-12T00:34:46.955Z,14.55
2022-09-12T00:35:22.037Z,14.73
2022-09-12T00:35:55.088Z,13.07
2022-09-12T00:36:30.905Z,15.40
2022-09-12T00:37:06.740Z,11.93
2022-09-12T00:37:41.423Z,12.68
2022-09-12T00:38:16.555Z,16.05
2022-09-12T00:38:50.570Z,14.40
2022-09-12T00:39:25.147Z,12.95
2022-09-12T00:40:00.438Z,12.57
2022-09-12T00:40:35.276Z,13.10
2022-09-12T00:41:09.834Z,14.60
2022-09-12T00:41:44.487Z,14.00
2022-09-12T00:42:18.468Z,17.23
2022-09-12T00:42:53.056Z,13.68
2022-09-12T00:43:39.081Z,12.50
2022-09-12T00:44:31.483Z,11.80
2022-09-12T00:45:06.599Z,14.40
2022-09-12T00:45:42.559Z,14.98
2022-09-12T00:46:22.809Z,13.90
2022-09-12T00:47:00.472Z,14.32
2022-09-12T00:47:34.551Z,12.35
2022-09-12T00:48:08.186Z,16.95
2022-09-12T00:48:45.255Z,15.93
2022-09-12T00:49:23.451Z,12.27
2022-09-12T00:50:00.136Z,12.00
2022-09-12T00:50:36.755Z,11.77
2022-09-12T00:51:10.677Z,12.07
2022-09-12T00:51:46.567Z,15.45
2022-09-12T00:52:26.103Z,13.73
2022-09-12T00:53:01.954Z,13.45
2022-09-12T00:53:35.593Z,15.88
2022-09-12T00:54:12.800Z,12.73
2022-09-12T00:54:49.350Z,16.58
2022-09-12T00:55:26.109Z,15.35
2022-09-12T00:56:01.397Z,18.20
2022-09-12T00:56:36.667Z,12.50
2022-09-12T00:57:13.955Z,14.15
2022-09-12T00:57:53.004Z,15.80
2022-09-12T00:58:29.719Z,16.27
2022-09-12T00:59:10.330Z,13.63
2022-09-12T00:59:49.050Z,15.27
2022-09-12T01:00:26.787Z,17.38
2022-09-12T01:01:01.960Z,13.77
2022-09-12T01:01:35.111Z,22.05
2022-09-12T01:02:11.622Z,13.57
2022-09-12T01:02:49.327Z,14.93
2022-09-12T01:03:24.545Z,14.02
2022-09-12T01:03:58.751Z,16.02
2022-09-12T01:04:33.885Z,13.10
2022-09-12T01:05:08.883Z,12.68
2022-09-12T01:05:49.778Z,13.63
2022-09-12T01:06:27.317Z,12.27
2022-09-12T01:07:00.271Z,13.98
2022-09-12T01:07:40.196Z,15.55
2022-09-12T01:08:13.707Z,15.55
2022-09-12T01:08:49.290Z,13.82
2022-09-12T01:09:25.580Z,11.45
2022-09-12T01:09:59.211Z,14.57
2022-09-12T01:10:34.569Z,12.07
2022-09-12T01:11:11.312Z,13.10
2022-09-12T01:11:47.293Z,11.70
2022-09-12T01:12:21.437Z,16.63
2022-09-12T01:12:55.855Z,11.25
2022-09-12T01:13:29.666Z,13.13
2022-09-12T01:14:03.677Z,12.43
2022-09-12T01:14:38.304Z,15.10
2022-09-12T01:15:11.943Z,13.80
2022-09-12T01:15:46.660Z,14.85
2022-09-12T01:16:22.282Z,13.38
2022-09-12T01:16:56.187Z,11.63
2022-09-12T01:17:36.441Z,12.38
2022-09-12T01:18:19.613Z,11.35
2022-09-12T01:19:02.749Z,15.30
2022-09-12T01:20:20.402Z,15.70
2022-09-12T01:21:11.867Z,13.30
2022-09-12T01:21:56.421Z,11.13
2022-09-12T01:22:50.625Z,16.48
2022-09-12T01:24:08.148Z,17.35
2022-09-12T01:24:54.719Z,12.32
2022-09-12T01:25:32.786Z,13.63
2022-09-12T01:26:43.705Z,13.15
2022-09-12T01:27:50.746Z,14.65
2022-09-12T01:28:57.605Z,14.25
2022-09-12T01:30:06.216Z,13.98
2022-09-12T01:30:52.863Z,17.10
2022-09-12T01:31:34.966Z,15.32
2022-09-12T01:32:16.011Z,17.88
2022-09-12T01:33:02.328Z,14.98
2022-09-12T01:33:49.129Z,14.40
2022-09-12T01:34:28.833Z,16.10
2022-09-12T01:35:08.542Z,20.58
2022-09-12T01:35:47.538Z,15.95
2022-09-12T01:36:37.040Z,14.35
2022-09-12T01:37:18.099Z,15.63
2022-09-12T01:38:02.016Z,16.88
2022-09-12T01:38:40.282Z,14.25
2022-09-12T01:39:26.886Z,16.05
2022-09-12T01:40:10.538Z,17.88
2022-09-12T01:40:50.595Z,13.93
2022-09-12T01:42:10.910Z,19.92
2022-09-12T01:42:53.977Z,14.52
2022-09-12T01:43:37.915Z,16.13
2022-09-12T01:44:26.046Z,15.70
2022-09-12T01:45:07.362Z,22.20
2022-09-12T01:45:46.857Z,17.15
2022-09-12T01:46:28.815Z,18.65
2022-09-12T01:47:10.788Z,16.50
2022-09-12T01:47:48.001Z,17.92
2022-09-12T01:48:28.580Z,15.30
2022-09-12T01:49:07.422Z,19.67
2022-09-12T01:49:50.649Z,20.40
2022-09-12T01:50:29.210Z,19.50
2022-09-12T01:51:16.790Z,19.42
2022-09-12T01:51:58.477Z,16.77
2022-09-12T01:52:38.810Z,18.67
2022-09-12T01:53:17.909Z,22.70
2022-09-12T01:53:59.088Z,18.27
2022-09-12T01:55:12.764Z,17.60
2022-09-12T01:55:52.023Z,19.42
2022-09-12T01:56:29.911Z,20.75
2022-09-12T01:57:12.156Z,20.55
2022-09-12T01:57:51.056Z,19.90
2022-09-12T01:58:31.550Z,16.45
2022-09-12T01:59:11.493Z,18.90
2022-09-12T01:59:52.514Z,17.23
2022-09-12T02:00:26.816Z,16.80
2022-09-12T02:01:07.187Z,18.10
2022-09-12T02:01:48.426Z,17.85
2022-09-12T02:02:30.992Z,18.80
2022-09-12T02:03:11.008Z,19.65
2022-09-12T02:04:23.972Z,16.55
2022-09-12T02:05:03.598Z,18.25
2022-09-12T02:05:41.496Z,19.42
2022-09-12T02:06:20.130Z,18.42
2022-09-12T02:07:00.241Z,19.88
2022-09-12T02:07:40.728Z,14.15
2022-09-12T02:08:18.805Z,19.15
2022-09-12T02:08:56.959Z,18.75
2022-09-12T02:09:37.555Z,20.38
2022-09-12T02:10:52.041Z,17.58
2022-09-12T02:11:26.281Z,20.77
2022-09-12T02:12:01.650Z,19.63
2022-09-12T02:12:43.362Z,22.50
2022-09-12T02:13:24.126Z,16.92
2022-09-12T02:14:02.997Z,16.70
2022-09-12T02:14:41.394Z,20.77
2022-09-12T02:15:18.925Z,19.33
2022-09-12T02:15:58.985Z,18.45
2022-09-12T02:16:33.502Z,18.23
2022-09-12T02:17:12.571Z,21.13
2022-09-12T02:17:48.843Z,20.10
2022-09-12T02:18:22.708Z,17.50
2022-09-12T02:18:59.716Z,18.45
2022-09-12T02:19:36.431Z,17.63
2022-09-12T02:20:31.096Z,20.13
2022-09-12T02:21:11.357Z,16.58
2022-09-12T02:21:48.907Z,18.75
2022-09-12T02:22:24.275Z,16.40
2022-09-12T02:23:00.637Z,16.63
2022-09-12T02:23:36.274Z,18.40
2022-09-12T02:24:11.345Z,16.58
2022-09-12T02:24:47.004Z,19.67
2022-09-12T02:25:21.785Z,17.33
2022-09-12T02:25:58.913Z,19.05
2022-09-12T02:26:37.307Z,18.73
2022-09-12T02:27:12.511Z,28.58
2022-09-12T02:27:47.625Z,27.77
2022-09-12T02:28:24.980Z,23.58
2022-09-12T02:28:59.253Z,20.63
2022-09-12T02:29:33.634Z,23.30
2022-09-12T02:30:08.193Z,19.63
2022-09-12T02:30:44.259Z,20.05
2022-09-12T02:31:22.218Z,20.17
2022-09-12T02:32:00.977Z,18.52
2022-09-12T02:32:38.809Z,18.40
2022-09-12T02:33:17.391Z,20.65
2022-09-12T02:33:54.354Z,17.33
2022-09-12T02:34:33.467Z,17.02
2022-09-12T02:35:09.816Z,18.90
2022-09-12T02:35:49.285Z,19.10
2022-09-12T02:36:30.143Z,19.13
2022-09-12T02:37:07.901Z,23.58
2022-09-12T02:37:47.596Z,19.02
2022-09-12T02:38:27.080Z,21.65
2022-09-12T02:39:01.255Z,20.20
2022-09-12T02:39:36.360Z,20.10
2022-09-12T02:40:11.278Z,21.70
2022-09-12T02:40:45.454Z,21.63
2022-09-12T02:41:20.368Z,19.45
2022-09-12T02:41:57.083Z,22.52
2022-09-12T02:42:30.709Z,17.10
2022-09-12T02:43:06.368Z,16.83
2022-09-12T02:43:40.032Z,20.45
2022-09-12T02:44:14.786Z,20.70
2022-09-12T02:44:49.195Z,18.55
2022-09-12T02:45:27.402Z,17.13
2022-09-12T02:46:02.686Z,20.00
2022-09-12T02:46:40.213Z,19.15
2022-09-12T02:47:16.402Z,20.48
2022-09-12T02:47:54.350Z,17.42
2022-09-12T02:48:29.233Z,18.67
2022-09-12T02:49:03.638Z,19.38
2022-09-12T02:49:38.065Z,16.35
2022-09-12T02:50:12.197Z,20.05
2022-09-12T02:50:46.357Z,22.38
2022-09-12T02:51:23.652Z,20.67
2022-09-12T02:51:57.519Z,23.05
2022-09-12T02:52:32.179Z,20.02
2022-09-12T02:53:07.336Z,18.77
2022-09-12T02:53:40.493Z,24.10
2022-09-12T02:54:15.219Z,20.88
2022-09-12T02:54:51.324Z,22.42
2022-09-12T02:55:25.378Z,19.35
2022-09-12T02:55:59.448Z,26.20
2022-09-12T02:56:34.814Z,19.35
2022-09-12T02:57:20.621Z,21.48
2022-09-12T02:57:57.242Z,23.55
2022-09-12T02:58:32.986Z,20.25
2022-09-12T02:59:08.849Z,21.08
2022-09-12T02:59:44.221Z,22.80
2022-09-12T03:00:19.367Z,18.08
2022-09-12T03:00:56.357Z,18.80
2022-09-12T03:01:45.681Z,23.90
2022-09-12T03:02:26.485Z,22.13
2022-09-12T03:03:15.051Z,23.08
2022-09-12T03:03:56.315Z,22.90
2022-09-12T03:04:48.101Z,24.25
2022-09-12T03:05:24.370Z,19.60
2022-09-12T03:06:00.176Z,19.55
2022-09-12T03:06:36.266Z,22.92
2022-09-12T03:07:14.619Z,21.77
2022-09-12T03:08:04.557Z,20.55
2022-09-12T03:08:52.714Z,87.45
2022-09-12T03:09:29.753Z,48.95
2022-09-12T03:10:06.030Z,54.83
2022-09-12T03:10:44.779Z,20.80
2022-09-12T03:11:29.499Z,17.50
2022-09-12T03:12:09.234Z,22.00
2022-09-12T03:12:48.455Z,19.90
2022-09-12T03:13:26.627Z,19.95
2022-09-12T03:14:07.042Z,17.55
2022-09-12T03:14:51.025Z,21.13
2022-09-12T03:15:31.860Z,22.33
2022-09-12T03:16:43.850Z,21.13
2022-09-12T03:17:25.274Z,23.17
2022-09-12T03:18:06.885Z,20.65
2022-09-12T03:18:51.973Z,19.48
2022-09-12T03:19:26.779Z,23.50
2022-09-12T03:20:04.918Z,22.67
2022-09-12T03:20:46.124Z,19.70
2022-09-12T03:21:24.779Z,24.58
2022-09-12T03:22:03.464Z,34.97
2022-09-12T03:22:43.511Z,22.48
2022-09-12T03:23:20.818Z,26.02
2022-09-12T03:24:01.504Z,21.90
2022-09-12T03:24:38.571Z,23.27
2022-09-12T03:25:16.641Z,20.20
2022-09-12T03:25:51.735Z,23.95
2022-09-12T03:26:29.948Z,19.88
2022-09-12T03:27:07.731Z,23.17
2022-09-12T03:27:43.582Z,21.27
2022-09-12T03:28:18.936Z,16.92
2022-09-12T03:28:54.158Z,19.92
2022-09-12T03:29:28.250Z,19.45
2022-09-12T03:30:03.865Z,20.58
2022-09-12T03:30:42.148Z,19.42
2022-09-12T03:31:15.952Z,23.05
2022-09-12T03:31:52.559Z,24.10
2022-09-12T03:32:41.380Z,22.02
2022-09-12T03:33:15.529Z,20.35
2022-09-12T03:33:52.109Z,23.77
2022-09-12T03:34:27.980Z,23.23
2022-09-12T03:35:02.704Z,21.67
2022-09-12T03:35:37.903Z,27.60
2022-09-12T03:36:17.904Z,21.30
2022-09-12T03:36:52.218Z,25.73
2022-09-12T03:37:26.008Z,22.13
2022-09-12T03:37:59.412Z,19.67
2022-09-12T03:38:34.149Z,22.50
2022-09-12T03:39:08.537Z,25.27
2022-09-12T03:39:43.046Z,23.58
2022-09-12T03:40:18.088Z,26.42
2022-09-12T03:40:54.900Z,22.35
2022-09-12T03:41:29.888Z,16.92
2022-09-12T03:42:04.380Z,24.08
2022-09-12T03:42:38.323Z,26.10
2022-09-12T03:43:12.152Z,22.20
2022-09-12T03:43:47.277Z,24.02
2022-09-12T03:44:21.402Z,22.17
2022-09-12T03:44:54.844Z,21.63
2022-09-12T03:45:31.249Z,25.55
2022-09-12T03:46:06.130Z,21.80
2022-09-12T03:46:39.771Z,20.00
2022-09-12T03:47:15.038Z,20.40
2022-09-12T03:47:48.655Z,20.98
2022-09-12T03:48:21.572Z,23.15
2022-09-12T03:48:58.012Z,27.67
2022-09-12T03:49:33.149Z,20.00
2022-09-12T03:50:07.810Z,20.13
2022-09-12T03:50:43.701Z,23.45
2022-09-12T03:51:18.392Z,22.13
2022-09-12T03:51:51.907Z,24.88
2022-09-12T03:52:26.542Z,22.00
2022-09-12T03:53:00.848Z,24.25
2022-09-12T03:53:34.425Z,22.52
2022-09-12T03:54:09.342Z,18.83
2022-09-12T03:54:42.913Z,29.30
2022-09-12T03:55:17.665Z,22.33
2022-09-12T03:55:52.660Z,20.50
2022-09-12T03:56:26.129Z,19.85
2022-09-12T03:56:59.753Z,21.73
2022-09-12T03:57:34.759Z,21.55
2022-09-12T03:58:09.715Z,21.58
2022-09-12T03:58:43.306Z,19.83
2022-09-12T03:59:18.533Z,22.90
2022-09-12T03:59:52.214Z,31.90
2022-09-12T04:00:25.934Z,20.38
2022-09-12T04:01:00.710Z,20.45
2022-09-12T04:01:35.437Z,19.02
2022-09-12T04:02:13.227Z,19.23
2022-09-12T04:02:49.111Z,30.42
2022-09-12T04:03:24.000Z,18.73
2022-09-12T04:03:59.350Z,22.27
2022-09-12T04:04:34.657Z,22.80
2022-09-12T04:05:09.599Z,17.35
2022-09-12T04:05:42.958Z,20.50
2022-09-12T04:06:18.262Z,17.13
2022-09-12T04:06:51.927Z,19.33
2022-09-12T04:07:26.198Z,21.63
2022-09-12T04:08:00.656Z,22.70
2022-09-12T04:08:35.416Z,18.80
2022-09-12T04:09:08.772Z,22.00
2022-09-12T04:09:44.177Z,17.45
2022-09-12T04:10:18.447Z,19.27
2022-09-12T04:10:52.263Z,23.45
2022-09-12T04:11:27.257Z,18.30
2022-09-12T04:12:01.996Z,17.15
2022-09-12T04:12:36.614Z,74.00
2022-09-12T04:13:11.265Z,32.63
2022-09-12T04:13:45.238Z,24.45
2022-09-12T04:14:20.177Z,21.55
2022-09-12T04:14:54.698Z,19.55
2022-09-12T04:15:28.896Z,18.15
2022-09-12T04:16:03.019Z,21.73
2022-09-12T04:16:37.465Z,23.92
2022-09-12T04:17:11.186Z,20.48
2022-09-12T04:17:43.971Z,17.60
2022-09-12T04:18:19.421Z,20.13
2022-09-12T04:18:53.330Z,20.77
2022-09-12T04:19:28.643Z,18.98
2022-09-12T04:20:03.715Z,15.70
2022-09-12T04:20:38.653Z,17.42
2022-09-12T04:21:13.295Z,16.98
2022-09-12T04:21:48.559Z,16.58
2022-09-12T04:22:22.343Z,20.40
2022-09-12T04:22:55.942Z,20.02
2022-09-12T04:23:32.030Z,17.10
2022-09-12T04:24:06.596Z,18.60
2022-09-12T04:24:41.379Z,19.15
2022-09-12T04:25:16.203Z,19.65
2022-09-12T04:25:55.854Z,18.85
2022-09-12T04:26:32.413Z,17.83
2022-09-12T04:27:07.902Z,19.35
2022-09-12T04:27:42.583Z,17.92
2022-09-12T04:28:18.022Z,21.63
2022-09-12T04:28:55.385Z,16.88
2022-09-12T04:29:32.316Z,16.52
2022-09-12T04:30:06.839Z,19.63
2022-09-12T04:30:41.048Z,17.42
2022-09-12T04:31:18.429Z,16.35
2022-09-12T04:31:52.624Z,20.13
2022-09-12T04:32:27.325Z,20.90
2022-09-12T04:33:07.895Z,25.98
2022-09-12T04:33:42.172Z,23.58
2022-09-12T04:34:15.884Z,27.73
2022-09-12T04:34:53.785Z,24.70
2022-09-12T04:35:28.378Z,21.20
2022-09-12T04:36:06.587Z,16.48
2022-09-12T04:36:41.140Z,17.35
2022-09-12T04:37:14.296Z,16.77
2022-09-12T04:37:49.034Z,17.77
2022-09-12T04:38:23.646Z,19.55
2022-09-12T04:38:57.455Z,18.25
2022-09-12T04:39:31.158Z,18.38
2022-09-12T04:40:06.297Z,17.85
2022-09-12T04:40:40.679Z,17.02
2022-09-12T04:41:14.681Z,16.33
2022-09-12T04:41:50.822Z,21.95
2022-09-12T04:42:25.166Z,15.85
2022-09-12T04:42:59.814Z,20.52
2022-09-12T04:43:35.367Z,14.88
2022-09-12T04:44:10.577Z,15.52
2022-09-12T04:44:44.689Z,21.33
2022-09-12T04:45:21.015Z,20.58
2022-09-12T04:45:55.082Z,21.27
2022-09-12T04:46:29.077Z,18.17
2022-09-12T04:47:05.140Z,20.92
2022-09-12T04:47:38.977Z,23.65
2022-09-12T04:48:13.063Z,20.48
2022-09-12T04:48:47.681Z,21.85
2022-09-12T04:49:21.576Z,22.48
2022-09-12T04:49:58.707Z,21.30
2022-09-12T04:50:32.311Z,20.48
2022-09-12T04:51:09.571Z,20.45
2022-09-12T04:51:44.949Z,20.83
2022-09-12T04:52:18.183Z,19.42
2022-09-12T04:52:52.699Z,20.85
2022-09-12T04:53:27.307Z,20.10
2022-09-12T04:54:02.346Z,17.15
2022-09-12T04:54:42.269Z,17.83
2022-09-12T04:55:15.200Z,22.52
2022-09-12T04:55:49.503Z,20.20
2022-09-12T04:56:24.423Z,18.30
2022-09-12T04:56:59.713Z,19.63
2022-09-12T04:57:33.884Z,18.60
2022-09-12T04:58:08.705Z,17.55
2022-09-12T04:58:43.214Z,19.38
2022-09-12T04:59:17.897Z,23.58
2022-09-12T04:59:53.161Z,24.40
2022-09-12T05:00:26.820Z,24.13
2022-09-12T05:01:05.073Z,20.10
2022-09-12T05:01:41.080Z,20.50
2022-09-12T05:02:15.737Z,22.00
2022-09-12T05:02:49.965Z,26.65
2022-09-12T05:03:25.063Z,26.02
2022-09-12T05:04:00.044Z,17.92
2022-09-12T05:04:33.592Z,21.48
2022-09-12T05:05:12.183Z,19.00
2022-09-12T05:05:46.806Z,20.38
2022-09-12T05:06:21.008Z,18.65
2022-09-12T05:06:55.249Z,18.42
2022-09-12T05:07:30.435Z,24.00
2022-09-12T05:08:05.154Z,23.90
2022-09-12T05:08:39.362Z,22.63
2022-09-12T05:09:14.865Z,20.75
2022-09-12T05:09:49.993Z,21.10
2022-09-12T05:10:24.648Z,24.17
2022-09-12T05:10:59.063Z,16.90
2022-09-12T05:12:00.080Z,22.20
2022-09-12T05:12:29.547Z,19.40
2022-09-12T05:13:04.117Z,19.23
2022-09-12T05:13:37.729Z,19.10
2022-09-12T05:14:12.636Z,19.42
2022-09-12T05:14:46.634Z,15.85
2022-09-12T05:15:22.757Z,18.65
2022-09-12T05:15:56.517Z,17.90
2022-09-12T05:16:32.013Z,17.70
2022-09-12T05:17:07.597Z,19.40
2022-09-12T05:17:41.138Z,19.65
2022-09-12T05:18:15.341Z,18.52
2022-09-12T05:18:50.886Z,20.20
2022-09-12T05:19:25.088Z,31.48
2022-09-12T05:20:01.392Z,26.95
2022-09-12T05:20:37.610Z,19.73
2022-09-12T05:21:13.077Z,21.52
2022-09-12T05:21:48.788Z,19.60
2022-09-12T05:22:23.495Z,20.38
2022-09-12T05:22:57.874Z,14.43
2022-09-12T05:23:34.406Z,21.02
2022-09-12T05:24:09.015Z,17.15
2022-09-12T05:24:48.537Z,14.20
2022-09-12T05:25:26.571Z,17.02
2022-09-12T05:26:00.751Z,17.75
2022-09-12T05:26:34.592Z,17.13
2022-09-12T05:27:10.326Z,18.90
2022-09-12T05:27:47.446Z,18.52
2022-09-12T05:28:25.578Z,22.65
2022-09-12T05:29:01.371Z,24.33
2022-09-12T05:29:35.020Z,18.98
2022-09-12T05:30:10.299Z,18.02
2022-09-12T05:30:44.799Z,33.08
2022-09-12T05:31:20.573Z,21.55
2022-09-12T05:31:55.297Z,16.98
2022-09-12T05:32:32.437Z,21.77
2022-09-12T05:33:07.159Z,17.30
2022-09-12T05:33:42.655Z,14.82
2022-09-12T05:34:16.406Z,19.33
2022-09-12T05:34:51.163Z,20.02
2022-09-12T05:35:25.284Z,18.95
2022-09-12T05:36:01.561Z,16.50
2022-09-12T05:36:37.686Z,16.08
2022-09-12T05:37:11.047Z,15.25
2022-09-12T05:37:44.797Z,15.82
2022-09-12T05:38:20.323Z,20.88
2022-09-12T05:38:54.592Z,88.85
2022-09-12T05:39:29.645Z,39.65
2022-09-12T05:40:08.226Z,154.15
2022-09-12T05:40:42.486Z,119.85
2022-09-12T05:41:21.870Z,25.55
2022-09-12T05:41:57.933Z,16.35
2022-09-12T05:42:33.128Z,20.50
2022-09-12T05:43:07.399Z,21.65
2022-09-12T05:43:41.670Z,18.40
2022-09-12T05:44:18.375Z,21.63
2022-09-12T05:44:52.271Z,19.98
2022-09-12T05:45:27.674Z,19.85
2022-09-12T05:46:05.041Z,15.77
2022-09-12T05:46:39.326Z,18.33
2022-09-12T05:47:14.463Z,21.80
2022-09-12T05:47:48.217Z,18.23
2022-09-12T05:48:21.539Z,18.90
2022-09-12T05:48:57.262Z,15.57
2022-09-12T05:49:31.590Z,18.30
2022-09-12T05:50:11.454Z,16.80
2022-09-12T05:50:47.016Z,27.63
2022-09-12T05:51:22.774Z,18.73
2022-09-12T05:51:57.921Z,14.95
2022-09-12T05:52:33.591Z,18.30
2022-09-12T05:53:09.309Z,14.43
2022-09-12T05:53:43.981Z,30.30
2022-09-12T05:54:19.537Z,18.42
2022-09-12T05:54:54.700Z,21.40
2022-09-12T05:55:29.402Z,16.48
2022-09-12T05:56:04.957Z,24.48
2022-09-12T05:56:40.855Z,18.55
2022-09-12T05:57:15.040Z,14.75
2022-09-12T05:57:50.624Z,17.55
2022-09-12T05:58:24.743Z,15.88
2022-09-12T05:58:59.575Z,20.73
2022-09-12T05:59:35.893Z,20.98
2022-09-12T06:00:10.775Z,20.30
2022-09-12T06:00:47.069Z,18.70
2022-09-12T06:01:22.398Z,15.18
2022-09-12T06:01:56.731Z,17.33
2022-09-12T06:02:31.141Z,15.63
2022-09-12T06:03:07.206Z,18.65
2022-09-12T06:03:42.153Z,15.70
2022-09-12T06:04:16.591Z,22.50
2022-09-12T06:04:51.529Z,14.15
2022-09-12T06:05:25.156Z,15.18
2022-09-12T06:05:59.250Z,13.95
2022-09-12T06:06:38.000Z,14.38
2022-09-12T06:07:12.150Z,15.80
2022-09-12T06:07:47.124Z,16.00
2022-09-12T06:08:21.898Z,16.30
2022-09-12T06:08:57.922Z,15.75
2022-09-12T06:09:32.803Z,15.30
2022-09-12T06:10:07.753Z,15.60
2022-09-12T06:10:42.174Z,15.98
2022-09-12T06:11:17.625Z,18.13
2022-09-12T06:11:52.526Z,21.80
2022-09-12T06:12:27.578Z,16.73
2022-09-12T06:13:04.732Z,14.98
2022-09-12T06:13:40.781Z,16.50
2022-09-12T06:14:15.669Z,15.80
2022-09-12T06:14:50.270Z,20.75
2022-09-12T06:15:23.873Z,16.00
2022-09-12T06:16:04.279Z,20.73
2022-09-12T06:17:15.013Z,19.40
2022-09-12T06:17:51.453Z,18.10
2022-09-12T06:18:25.890Z,13.75
2022-09-12T06:19:01.572Z,15.52
2022-09-12T06:19:35.788Z,13.85
2022-09-12T06:20:11.371Z,16.33
2022-09-12T06:20:46.501Z,20.33
2022-09-12T06:21:20.139Z,15.52
2022-09-12T06:21:57.421Z,14.90
2022-09-12T06:22:31.528Z,17.13
2022-09-12T06:23:05.797Z,16.40
2022-09-12T06:23:41.040Z,15.95
2022-09-12T06:24:14.945Z,13.32
2022-09-12T06:24:49.849Z,21.23
2022-09-12T06:25:23.782Z,53.33
2022-09-12T06:25:58.455Z,236.70
2022-09-12T06:26:33.637Z,302.77
2022-09-12T06:27:07.468Z,118.45
2022-09-12T06:27:42.305Z,24.67
2022-09-12T06:28:16.788Z,19.80
2022-09-12T06:28:52.209Z,17.67
2022-09-12T06:29:28.192Z,24.08
2022-09-12T06:30:02.918Z,20.45
2022-09-12T06:30:35.998Z,14.82
2022-09-12T06:31:11.935Z,17.02
2022-09-12T06:31:46.530Z,16.45
2022-09-12T06:32:22.094Z,15.13
2022-09-12T06:32:57.593Z,14.15
2022-09-12T06:33:31.889Z,12.48
2022-09-12T06:34:07.426Z,12.02
2022-09-12T06:34:41.641Z,14.68
2022-09-12T06:35:17.043Z,12.98
2022-09-12T06:35:52.227Z,14.43
2022-09-12T06:36:27.112Z,17.33
2022-09-12T06:37:04.788Z,17.20
2022-09-12T06:37:40.787Z,15.48
2022-09-12T06:38:14.971Z,14.10
2022-09-12T06:38:52.024Z,14.70
2022-09-12T06:39:26.364Z,19.45
2022-09-12T06:40:01.945Z,19.33
2022-09-12T06:40:37.836Z,14.90
2022-09-12T06:41:13.047Z,17.25
2022-09-12T06:41:48.453Z,18.55
2022-09-12T06:42:22.685Z,17.58
2022-09-12T06:43:04.616Z,15.60
2022-09-12T06:43:40.718Z,17.08
2022-09-12T06:44:16.309Z,16.17
2022-09-12T06:44:51.350Z,21.40
2022-09-12T06:45:26.734Z,14.27
2022-09-12T06:46:00.500Z,18.30
2022-09-12T06:46:35.066Z,16.60
2022-09-12T06:47:10.336Z,15.55
2022-09-12T06:47:44.999Z,17.30
2022-09-12T06:48:19.881Z,19.20
2022-09-12T06:48:56.056Z,16.33
2022-09-12T06:49:32.328Z,16.73
2022-09-12T06:50:09.413Z,19.15
2022-09-12T06:50:43.536Z,16.98
2022-09-12T06:51:19.981Z,15.77
2022-09-12T06:51:53.436Z,21.38
2022-09-12T06:52:29.865Z,15.18
2022-09-12T06:53:05.680Z,17.35
2022-09-12T06:53:40.602Z,15.98
2022-09-12T06:54:16.186Z,13.38
2022-09-12T06:54:51.164Z,18.75
2022-09-12T06:55:27.700Z,19.00
2022-09-12T06:56:04.512Z,14.68
2022-09-12T06:56:38.136Z,16.27
2022-09-12T06:57:13.888Z,13.75
2022-09-12T06:57:48.329Z,17.25
2022-09-12T06:58:22.787Z,14.20
2022-09-12T06:58:59.545Z,18.45
2022-09-12T06:59:33.536Z,15.50
2022-09-12T07:00:08.102Z,14.95
2022-09-12T07:00:43.503Z,19.33
2022-09-12T07:01:20.043Z,16.23
2022-09-12T07:01:55.050Z,18.60
2022-09-12T07:02:29.647Z,14.23
2022-09-12T07:03:03.831Z,22.88
2022-09-12T07:03:39.493Z,18.73
2022-09-12T07:04:13.139Z,14.23
2022-09-12T07:04:50.164Z,15.85
2022-09-12T07:05:24.394Z,19.67
2022-09-12T07:05:58.568Z,19.13
2022-09-12T07:06:33.985Z,12.05
2022-09-12T07:07:08.632Z,17.27
2022-09-12T07:07:43.690Z,15.02
2022-09-12T07:08:19.448Z,119.68
2022-09-12T07:08:53.512Z,173.98
2022-09-12T07:09:29.816Z,32.25
2022-09-12T07:10:04.650Z,21.38
2022-09-12T07:10:37.814Z,16.70
2022-09-12T07:11:13.510Z,19.92
2022-09-12T07:11:47.504Z,16.75
2022-09-12T07:12:23.743Z,17.33
2022-09-12T07:12:58.134Z,13.20
2022-09-12T07:13:32.027Z,12.32
2022-09-12T07:14:08.040Z,13.40
2022-09-12T07:14:42.088Z,20.35
2022-09-12T07:15:18.060Z,13.32
2022-09-12T07:15:53.146Z,15.52
2022-09-12T07:16:26.848Z,21.90
2022-09-12T07:17:02.234Z,13.85
2022-09-12T07:17:36.557Z,13.80
2022-09-12T07:18:10.836Z,12.68
2022-09-12T07:18:46.926Z,13.30
2022-09-12T07:19:21.254Z,11.55
2022-09-12T07:19:55.893Z,10.65
2022-09-12T07:20:32.508Z,11.15
2022-09-12T07:21:08.101Z,9.68
2022-09-12T07:21:43.189Z,11.85
2022-09-12T07:22:15.988Z,14.07
2022-09-12T07:22:52.134Z,11.45
2022-09-12T07:23:27.386Z,14.45
2022-09-12T07:24:02.068Z,14.93
2022-09-12T07:24:39.353Z,10.82
2022-09-12T07:25:13.785Z,13.50
2022-09-12T07:25:53.861Z,12.02
2022-09-12T07:27:02.652Z,18.48
2022-09-12T07:27:38.361Z,12.00
2022-09-12T07:28:12.970Z,15.02
2022-09-12T07:28:46.723Z,19.33
2022-09-12T07:29:38.068Z,13.02
2022-09-12T07:30:13.489Z,11.48
2022-09-12T07:30:47.709Z,10.30
2022-09-12T07:31:23.858Z,9.93
2022-09-12T07:31:58.573Z,10.40
2022-09-12T07:32:33.250Z,9.30
2022-09-12T07:33:09.379Z,14.15
2022-09-12T07:33:44.032Z,14.30
2022-09-12T07:34:17.951Z,10.05
2022-09-12T07:34:53.493Z,10.35
2022-09-12T07:35:26.599Z,9.10
2022-09-12T07:36:02.603Z,9.27
2022-09-12T07:36:37.888Z,17.27
2022-09-12T07:37:12.317Z,12.88
2022-09-12T07:37:48.198Z,10.05
2022-09-12T07:38:24.579Z,10.50
2022-09-12T07:38:58.575Z,8.82
2022-09-12T07:39:34.336Z,9.18
2022-09-12T07:40:11.769Z,9.18
2022-09-12T07:40:45.944Z,10.20
2022-09-12T07:41:22.071Z,20.40
2022-09-12T07:41:55.680Z,38.50
2022-09-12T07:42:29.714Z,76.75
2022-09-12T07:43:03.857Z,122.28
2022-09-12T07:43:39.059Z,10.93
2022-09-12T07:44:14.030Z,13.15
2022-09-12T07:44:50.061Z,12.82
2022-09-12T07:45:24.196Z,12.35
2022-09-12T07:45:59.072Z,11.32
2022-09-12T07:46:33.872Z,14.65
2022-09-12T07:47:10.549Z,13.57
2022-09-12T07:47:44.462Z,10.85
2022-09-12T07:48:19.439Z,11.23
2022-09-12T07:48:54.623Z,11.68
2022-09-12T07:49:29.047Z,10.27
2022-09-12T07:50:05.128Z,10.25
2022-09-12T07:50:43.171Z,10.60
2022-09-12T07:51:19.721Z,10.40
2022-09-12T07:51:55.150Z,11.52
2022-09-12T07:52:29.000Z,10.80
2022-09-12T07:53:04.265Z,10.43
2022-09-12T07:53:40.286Z,11.25
2022-09-12T07:54:16.569Z,9.55